Time;durP1;ratioP1;P1;durP2;ratioP2;P2;SDS_P1;SDS_P2;PMS_P1;PMS_P2;Temp;Humidity;BMP_temperature;BMP_pressure;BME280_temperature;BME280_humidity;BME280_pressure;Samples;Min_cycle;Max_cycle;Signal;HPM_P1;HPM_P2
2023/06/25 00:00:54;;;;;;;3.33;1.30;;;;;;;;;;10456083;28;20384;-61
2023/06/25 00:05:54;;;;;;;2.70;1.30;;;;;;;;;;10457380;28;20350;-61
2023/06/25 00:10:55;;;;;;;1.10;1.00;;;;;;;;;;10485906;28;20400;-59
2023/06/25 00:15:56;;;;;;;2.63;1.20;;;;;;;;;;10464404;28;20017;-60
2023/06/25 00:20:56;;;;;;;2.00;1.10;;;;;;;;;;10474252;28;20021;-60
2023/06/25 00:25:57;;;;;;;7.45;1.10;;;;;;;;;;10467973;28;20032;-60
2023/06/25 00:30:57;;;;;;;2.28;1.20;;;;;;;;;;10474824;28;20045;-60
2023/06/25 00:35:58;;;;;;;2.42;1.13;;;;;;;;;;10454383;28;20075;-60
2023/06/25 00:40:58;;;;;;;4.20;1.27;;;;;;;;;;10479308;28;20033;-60
2023/06/25 00:46:00;;;;;;;2.25;1.20;;;;;;;;;;10471735;28;20565;-58
2023/06/25 00:51:01;;;;;;;1.88;1.40;;;;;;;;;;10468607;28;20086;-60
2023/06/25 00:56:03;;;;;;;2.70;1.08;;;;;;;;;;10462924;28;20110;-59
2023/06/25 01:01:11;;;;;;;4.20;1.20;;;;;;;;;;10469029;28;20256;-60
2023/06/25 01:06:29;;;;;;;3.92;1.02;;;;;;;;;;10466604;28;20116;-58
2023/06/25 01:11:29;;;;;;;1.27;1.17;;;;;;;;;;10489416;28;20279;-59
2023/06/25 01:16:30;;;;;;;1.40;1.00;;;;;;;;;;10466953;28;20241;-59
2023/06/25 01:21:33;;;;;;;1.85;1.20;;;;;;;;;;10465033;28;20526;-61
2023/06/25 01:26:34;;;;;;;1.63;1.00;;;;;;;;;;10455670;28;20112;-58
2023/06/25 01:31:34;;;;;;;2.55;1.00;;;;;;;;;;10469146;28;20048;-60
2023/06/25 01:36:39;;;;;;;1.52;1.05;;;;;;;;;;10461541;28;20033;-58
2023/06/25 01:41:40;;;;;;;1.85;1.00;;;;;;;;;;10452514;28;20025;-60
2023/06/25 01:46:41;;;;;;;1.10;1.00;;;;;;;;;;10470908;28;20532;-58
2023/06/25 01:51:42;;;;;;;1.58;1.15;;;;;;;;;;10461867;28;20028;-59
2023/06/25 01:56:42;;;;;;;1.77;0.82;;;;;;;;;;10499037;28;20032;-60
2023/06/25 02:01:43;;;;;;;1.10;1.00;;;;;;;;;;10492905;28;20387;-60
2023/06/25 02:06:44;;;;;;;1.10;0.90;;;;;;;;;;10498468;28;20081;-61
2023/06/25 02:11:46;;;;;;;1.25;1.02;;;;;;;;;;10495271;28;20025;-60
2023/06/25 02:16:46;;;;;;;1.73;0.90;;;;;;;;;;10495007;28;20131;-60
2023/06/25 02:21:47;;;;;;;3.22;1.27;;;;;;;;;;10494197;28;20024;-61
2023/06/25 02:26:47;;;;;;;3.22;0.73;;;;;;;;;;10495559;28;20059;-60
2023/06/25 02:31:48;;;;;;;1.63;1.10;;;;;;;;;;10455954;28;1114773;-60
2023/06/25 02:36:50;;;;;;;3.67;1.00;;;;;;;;;;10497147;28;20041;-60
2023/06/25 02:41:51;;;;;;;0.70;0.70;;;;;;;;;;10497303;28;20072;-60
2023/06/25 02:46:51;;;;;;;2.45;1.00;;;;;;;;;;10496510;28;20127;-61
2023/06/25 02:51:52;;;;;;;0.93;0.90;;;;;;;;;;10486196;28;20032;-61
2023/06/25 02:56:53;;;;;;;2.38;0.90;;;;;;;;;;10495809;28;20032;-60
2023/06/25 03:01:53;;;;;;;1.13;0.90;;;;;;;;;;10495649;28;20033;-61
2023/06/25 03:06:54;;;;;;;1.02;0.70;;;;;;;;;;10497687;28;20622;-60
2023/06/25 03:11:54;;;;;;;1.52;0.90;;;;;;;;;;10496181;28;20468;-60
2023/06/25 03:16:55;;;;;;;1.88;0.90;;;;;;;;;;10496758;28;20468;-61
2023/06/25 03:21:56;;;;;;;1.60;0.82;;;;;;;;;;10494987;28;20492;-60
2023/06/25 03:26:56;;;;;;;0.75;0.75;;;;;;;;;;10495746;28;20036;-61
2023/06/25 03:31:57;;;;;;;1.00;0.90;;;;;;;;;;10493925;28;20049;-61
2023/06/25 03:36:58;;;;;;;1.33;1.00;;;;;;;;;;10494046;28;20059;-61
2023/06/25 03:41:58;;;;;;;1.35;1.10;;;;;;;;;;10495479;28;20029;-61
2023/06/25 03:47:00;;;;;;;1.98;1.00;;;;;;;;;;10493736;28;20020;-60
2023/06/25 03:52:00;;;;;;;1.40;1.00;;;;;;;;;;10494352;28;20032;-59
2023/06/25 03:57:01;;;;;;;0.90;0.85;;;;;;;;;;10493714;28;20020;-59
2023/06/25 04:02:02;;;;;;;2.67;1.00;;;;;;;;;;10493021;28;20029;-61
2023/06/25 04:07:02;;;;;;;1.05;0.90;;;;;;;;;;10475060;28;20123;-60
2023/06/25 04:12:03;;;;;;;3.70;1.00;;;;;;;;;;10492872;28;20074;-61
2023/06/25 04:17:04;;;;;;;1.90;0.90;;;;;;;;;;10494789;28;20376;-60
2023/06/25 04:22:05;;;;;;;1.30;0.90;;;;;;;;;;10492922;28;20183;-61
2023/06/25 04:27:06;;;;;;;5.80;0.98;;;;;;;;;;10492144;28;20048;-59
2023/06/25 04:32:07;;;;;;;2.63;1.02;;;;;;;;;;10492233;28;20094;-58
2023/06/25 04:37:07;;;;;;;4.93;1.10;;;;;;;;;;10492794;28;20032;-58
2023/06/25 04:42:08;;;;;;;2.38;1.10;;;;;;;;;;10493752;28;20017;-60
2023/06/25 04:47:09;;;;;;;3.35;0.80;;;;;;;;;;10492585;28;20063;-59
2023/06/25 04:52:17;;;;;;;2.85;0.93;;;;;;;;;;10491850;28;20111;-59
2023/06/25 04:57:18;;;;;;;1.15;1.05;;;;;;;;;;10492042;28;20495;-58
2023/06/25 05:02:18;;;;;;;2.15;1.10;;;;;;;;;;10496892;28;20369;-60
2023/06/25 05:07:19;;;;;;;1.33;1.08;;;;;;;;;;10492129;28;20032;-60
2023/06/25 05:12:20;;;;;;;2.97;1.13;;;;;;;;;;10490550;28;20025;-60
2023/06/25 05:17:20;;;;;;;1.70;0.93;;;;;;;;;;10490659;28;20024;-60
2023/06/25 05:22:21;;;;;;;1.42;0.88;;;;;;;;;;10491631;28;20036;-60
2023/06/25 05:27:21;;;;;;;2.80;1.10;;;;;;;;;;10491014;28;20035;-60
2023/06/25 05:32:22;;;;;;;2.45;1.05;;;;;;;;;;10489935;28;20048;-60
2023/06/25 05:37:22;;;;;;;1.30;0.90;;;;;;;;;;10489673;28;20036;-60
2023/06/25 05:42:23;;;;;;;2.83;0.90;;;;;;;;;;10495081;28;20040;-60
2023/06/25 05:47:23;;;;;;;1.63;0.95;;;;;;;;;;10497753;28;20028;-60
2023/06/25 05:52:24;;;;;;;2.58;0.90;;;;;;;;;;10496698;28;20042;-60
2023/06/25 05:57:25;;;;;;;1.25;0.90;;;;;;;;;;10497348;28;20017;-61
2023/06/25 06:02:25;;;;;;;2.15;1.20;;;;;;;;;;10501041;28;20130;-61
2023/06/25 06:07:26;;;;;;;1.40;0.98;;;;;;;;;;10487503;28;20489;-61
2023/06/25 06:12:27;;;;;;;1.35;0.90;;;;;;;;;;10493094;28;20484;-60
2023/06/25 06:17:27;;;;;;;2.00;1.10;;;;;;;;;;10496108;28;20483;-60
2023/06/25 06:22:29;;;;;;;1.80;0.90;;;;;;;;;;10495545;28;20089;-59
2023/06/25 06:27:30;;;;;;;1.20;1.00;;;;;;;;;;10495082;28;20519;-59
2023/06/25 06:32:30;;;;;;;3.40;1.08;;;;;;;;;;10495470;28;20059;-60
2023/06/25 06:37:31;;;;;;;1.15;1.05;;;;;;;;;;10491106;28;20044;-60
2023/06/25 06:42:34;;;;;;;1.38;1.10;;;;;;;;;;10494641;28;20419;-58
2023/06/25 06:47:34;;;;;;;8.05;1.58;;;;;;;;;;10495008;28;20381;-59
2023/06/25 06:52:35;;;;;;;7.13;1.60;;;;;;;;;;10493713;28;20028;-59
2023/06/25 06:57:36;;;;;;;7.75;1.42;;;;;;;;;;10494073;28;20024;-58
2023/06/25 07:02:36;;;;;;;5.28;1.50;;;;;;;;;;10498820;28;20024;-58
2023/06/25 07:07:37;;;;;;;1.90;1.30;;;;;;;;;;10496426;28;20036;-57
2023/06/25 07:12:38;;;;;;;2.03;1.48;;;;;;;;;;10497010;28;20035;-58
2023/06/25 07:17:39;;;;;;;3.30;1.38;;;;;;;;;;10495318;28;20024;-60
2023/06/25 07:22:40;;;;;;;3.20;1.40;;;;;;;;;;10495537;28;20067;-60
2023/06/25 07:27:40;;;;;;;3.28;1.25;;;;;;;;;;10493433;28;20028;-60
2023/06/25 07:32:41;;;;;;;3.10;1.60;;;;;;;;;;10494989;28;20052;-60
2023/06/25 07:37:41;;;;;;;4.43;1.60;;;;;;;;;;10495538;28;20021;-61
2023/06/25 07:42:42;;;;;;;4.20;1.75;;;;;;;;;;10494328;28;20031;-60
2023/06/25 07:47:43;;;;;;;1.83;1.30;;;;;;;;;;10494802;28;20017;-58
2023/06/25 07:52:43;;;;;;;4.03;1.50;;;;;;;;;;10494309;28;20225;-61
2023/06/25 07:57:44;;;;;;;3.80;1.63;;;;;;;;;;10494306;28;20025;-61
2023/06/25 08:02:44;;;;;;;2.67;1.75;;;;;;;;;;10496048;28;20016;-60
2023/06/25 08:07:45;;;;;;;3.45;1.80;;;;;;;;;;10493813;28;20076;-61
2023/06/25 08:12:46;;;;;;;3.40;1.60;;;;;;;;;;10494027;28;20075;-60
2023/06/25 08:17:47;;;;;;;1.95;1.42;;;;;;;;;;10494464;28;20468;-61
2023/06/25 08:22:48;;;;;;;1.77;1.20;;;;;;;;;;10493087;28;20036;-59
2023/06/25 08:27:49;;;;;;;1.52;1.30;;;;;;;;;;10493003;28;20082;-60
2023/06/25 08:32:50;;;;;;;1.50;1.25;;;;;;;;;;10492698;28;20048;-59
2023/06/25 08:37:50;;;;;;;1.90;1.48;;;;;;;;;;10492494;28;20039;-60
2023/06/25 08:42:51;;;;;;;2.13;1.58;;;;;;;;;;10493489;28;20035;-60
2023/06/25 08:47:59;;;;;;;2.10;1.40;;;;;;;;;;10492322;28;20469;-60
2023/06/25 08:52:59;;;;;;;;;;;;;;;;;;10491124;28;20025;-60
2023/06/25 08:58:00;;;;;;;2.38;1.48;;;;;;;;;;10491626;28;20016;-60
2023/06/25 09:03:00;;;;;;;2.13;1.55;;;;;;;;;;10495688;28;20021;-60
2023/06/25 09:08:01;;;;;;;3.85;1.60;;;;;;;;;;10491898;28;20484;-60
2023/06/25 09:13:02;;;;;;;1.80;1.40;;;;;;;;;;10491078;28;20479;-60
2023/06/25 09:18:03;;;;;;;1.50;1.40;;;;;;;;;;10491588;28;20021;-61
2023/06/25 09:23:05;;;;;;;1.45;1.23;;;;;;;;;;10492050;28;20430;-60
2023/06/25 09:28:09;;;;;;;3.42;1.40;;;;;;;;;;10491073;28;20101;-61
2023/06/25 09:33:12;;;;;;;1.70;1.08;;;;;;;;;;10491190;28;20512;-60
2023/06/25 09:38:12;;;;;;;3.47;1.40;;;;;;;;;;10490726;28;20054;-60
2023/06/25 09:43:13;;;;;;;2.53;1.55;;;;;;;;;;10491262;28;20035;-60
2023/06/25 09:48:16;;;;;;;2.00;1.30;;;;;;;;;;10489111;28;20033;-60
2023/06/25 09:53:22;;;;;;;2.15;1.45;;;;;;;;;;10477813;28;20032;-60
2023/06/25 09:58:24;;;;;;;3.05;1.33;;;;;;;;;;10479666;28;20453;-60
2023/06/25 10:03:25;;;;;;;1.92;1.30;;;;;;;;;;10494809;28;20032;-59
2023/06/25 10:08:26;;;;;;;3.75;1.50;;;;;;;;;;10489836;28;20028;-59
2023/06/25 10:13:27;;;;;;;2.78;1.30;;;;;;;;;;10489706;28;20028;-59
2023/06/25 10:18:29;;;;;;;2.80;1.45;;;;;;;;;;10490672;28;20419;-60
2023/06/25 10:23:30;;;;;;;2.25;1.25;;;;;;;;;;10490659;28;20028;-59
2023/06/25 10:28:36;;;;;;;2.72;1.58;;;;;;;;;;10496713;28;20024;-60
2023/06/25 10:33:38;;;;;;;2.38;1.63;;;;;;;;;;10497062;28;20056;-60
2023/06/25 10:38:39;;;;;;;1.63;1.33;;;;;;;;;;10497816;28;20032;-60
2023/06/25 10:43:40;;;;;;;1.67;1.33;;;;;;;;;;10496405;28;20103;-58
2023/06/25 10:48:45;;;;;;;1.77;1.50;;;;;;;;;;10496835;28;20016;-60
2023/06/25 10:53:47;;;;;;;2.22;1.40;;;;;;;;;;10496876;28;20029;-60
2023/06/25 10:58:57;;;;;;;2.17;1.73;;;;;;;;;;10496831;28;20020;-60
2023/06/25 11:03:58;;;;;;;2.00;1.50;;;;;;;;;;10499619;28;20792;-60
2023/06/25 11:08:58;;;;;;;2.35;1.58;;;;;;;;;;10497615;28;20536;-60
2023/06/25 11:14:00;;;;;;;2.70;1.58;;;;;;;;;;10495689;28;20025;-60
2023/06/25 11:19:01;;;;;;;1.50;1.30;;;;;;;;;;10495869;28;20031;-60
2023/06/25 11:24:09;;;;;;;2.58;1.80;;;;;;;;;;10495780;28;20025;-60
2023/06/25 11:29:11;;;;;;;1.70;1.40;;;;;;;;;;10496307;28;20107;-60
2023/06/25 11:34:32;;;;;;;2.53;1.77;;;;;;;;;;10495224;28;20055;-61
2023/06/25 11:39:47;;;;;;;1.83;1.50;;;;;;;;;;10484087;28;20178;-59
2023/06/25 11:45:03;;;;;;;1.88;1.60;;;;;;;;;;10495452;28;20074;-60
2023/06/25 11:50:04;;;;;;;2.13;1.63;;;;;;;;;;10494259;28;20032;-60
2023/06/25 11:55:06;;;;;;;2.17;1.60;;;;;;;;;;10493925;28;20032;-60
2023/06/25 12:00:07;;;;;;;1.65;1.55;;;;;;;;;;10493914;28;20020;-60
2023/06/25 12:05:08;;;;;;;1.75;1.48;;;;;;;;;;10500819;28;20021;-60
2023/06/25 12:10:09;;;;;;;1.52;1.42;;;;;;;;;;10493615;28;20042;-58
2023/06/25 12:15:10;;;;;;;2.28;1.60;;;;;;;;;;10493571;28;20048;-58
2023/06/25 12:20:11;;;;;;;3.47;1.80;;;;;;;;;;10493162;28;20039;-59
2023/06/25 12:25:12;;;;;;;1.60;1.50;;;;;;;;;;10493357;28;20032;-58
2023/06/25 12:30:13;;;;;;;1.83;1.50;;;;;;;;;;10493322;28;20504;-58
2023/06/25 12:35:14;;;;;;;3.58;1.45;;;;;;;;;;10494259;28;20101;-58
2023/06/25 12:40:15;;;;;;;2.20;1.52;;;;;;;;;;10493402;28;20016;-59
2023/06/25 12:45:17;;;;;;;1.95;1.42;;;;;;;;;;10492347;28;20012;-60
2023/06/25 12:50:18;;;;;;;2.00;1.30;;;;;;;;;;10491568;28;20021;-60
2023/06/25 12:55:18;;;;;;;2.65;1.83;;;;;;;;;;10491736;28;20036;-59
2023/06/25 13:00:19;;;;;;;1.98;1.67;;;;;;;;;;10491719;28;20380;-58
2023/06/25 13:05:20;;;;;;;1.98;1.48;;;;;;;;;;10495316;28;20079;-58
2023/06/25 13:10:20;;;;;;;2.00;1.80;;;;;;;;;;10491679;28;20048;-58
2023/06/25 13:15:21;;;;;;;1.70;1.52;;;;;;;;;;10492168;28;20082;-58
2023/06/25 13:20:22;;;;;;;1.85;1.70;;;;;;;;;;10491668;28;20031;-58
2023/06/25 13:25:22;;;;;;;1.98;1.50;;;;;;;;;;10492605;28;20036;-59
2023/06/25 13:30:25;;;;;;;2.50;1.65;;;;;;;;;;10490636;28;20021;-58
2023/06/25 13:35:26;;;;;;;1.55;1.45;;;;;;;;;;10483550;28;20153;-58
2023/06/25 13:40:26;;;;;;;1.95;1.70;;;;;;;;;;10490069;28;20139;-58
2023/06/25 13:45:28;;;;;;;2.75;1.70;;;;;;;;;;10492243;28;20040;-59
2023/06/25 13:50:29;;;;;;;1.70;1.60;;;;;;;;;;10490956;28;20058;-58
2023/06/25 13:55:30;;;;;;;1.40;1.30;;;;;;;;;;10491808;28;20078;-58
2023/06/25 14:00:30;;;;;;;2.55;1.70;;;;;;;;;;10491560;28;20025;-58
2023/06/25 14:05:35;;;;;;;2.05;1.90;;;;;;;;;;10502603;28;20179;-58
2023/06/25 14:10:35;;;;;;;2.38;2.00;;;;;;;;;;10499025;28;20276;-58
2023/06/25 14:15:37;;;;;;;1.80;1.70;;;;;;;;;;10498928;28;20821;-58
2023/06/25 14:20:38;;;;;;;1.90;1.70;;;;;;;;;;10497996;28;20020;-60
2023/06/25 14:25:38;;;;;;;2.97;1.80;;;;;;;;;;10497976;28;20059;-60
2023/06/25 14:30:39;;;;;;;2.80;2.00;;;;;;;;;;10496145;28;20439;-60
2023/06/25 14:35:40;;;;;;;2.15;1.95;;;;;;;;;;10496979;28;20030;-61
2023/06/25 14:40:40;;;;;;;1.92;1.83;;;;;;;;;;10498917;28;20024;-60
2023/06/25 14:45:41;;;;;;;1.95;1.80;;;;;;;;;;10497562;28;20392;-61
2023/06/25 14:50:41;;;;;;;1.90;1.80;;;;;;;;;;10496425;28;20424;-60
2023/06/25 14:55:43;;;;;;;2.47;1.92;;;;;;;;;;10496482;28;20428;-60
2023/06/25 15:00:43;;;;;;;2.58;2.03;;;;;;;;;;10496522;28;20048;-60
2023/06/25 15:05:44;;;;;;;2.38;2.05;;;;;;;;;;10500580;28;20029;-60
2023/06/25 15:10:44;;;;;;;2.30;2.00;;;;;;;;;;10495844;28;20036;-60
2023/06/25 15:15:45;;;;;;;2.47;2.00;;;;;;;;;;10497068;28;20024;-60
2023/06/25 15:20:45;;;;;;;2.30;2.10;;;;;;;;;;10496641;28;20095;-60
2023/06/25 15:25:46;;;;;;;1.85;1.75;;;;;;;;;;10495973;28;20024;-60
2023/06/25 15:30:47;;;;;;;2.13;1.92;;;;;;;;;;10494614;28;20028;-60
2023/06/25 15:35:47;;;;;;;2.28;1.95;;;;;;;;;;10495081;28;20037;-61
2023/06/25 15:40:48;;;;;;;2.50;1.95;;;;;;;;;;10495730;28;20044;-58
2023/06/25 15:45:48;;;;;;;1.80;1.70;;;;;;;;;;10495117;28;20476;-58
2023/06/25 15:50:49;;;;;;;1.88;1.77;;;;;;;;;;10493983;28;20036;-59
2023/06/25 15:55:49;;;;;;;2.25;1.98;;;;;;;;;;10494615;28;20020;-58
2023/06/25 16:00:50;;;;;;;1.85;1.75;;;;;;;;;;10494281;28;20082;-58
2023/06/25 16:05:51;;;;;;;2.58;2.20;;;;;;;;;;10498270;28;20519;-58
2023/06/25 16:10:51;;;;;;;1.70;1.60;;;;;;;;;;10493472;28;20020;-59
2023/06/25 16:15:52;;;;;;;2.08;1.98;;;;;;;;;;10491555;28;20497;-59
2023/06/25 16:20:52;;;;;;;2.10;1.90;;;;;;;;;;10491418;28;20044;-58
2023/06/25 16:25:53;;;;;;;2.85;2.17;;;;;;;;;;10492310;28;20028;-60
2023/06/25 16:30:53;;;;;;;2.17;1.98;;;;;;;;;;10492363;28;20557;-60
2023/06/25 16:35:54;;;;;;;2.20;2.00;;;;;;;;;;10472668;28;20503;-61
2023/06/25 16:40:55;;;;;;;2.10;1.90;;;;;;;;;;10460840;28;20408;-60
2023/06/25 16:45:55;;;;;;;2.33;2.13;;;;;;;;;;10460887;28;20388;-60
2023/06/25 16:50:56;;;;;;;1.90;1.80;;;;;;;;;;10471028;28;20024;-58
2023/06/25 16:55:56;;;;;;;2.40;2.20;;;;;;;;;;10474417;28;20059;-61
2023/06/25 17:00:57;;;;;;;2.33;2.05;;;;;;;;;;10463751;28;20032;-59
2023/06/25 17:05:59;;;;;;;2.50;2.30;;;;;;;;;;10488814;28;20090;-61
2023/06/25 17:11:00;;;;;;;4.28;2.63;;;;;;;;;;10490188;28;20130;-60
2023/06/25 17:16:00;;;;;;;6.82;2.50;;;;;;;;;;10490126;28;20040;-59
2023/06/25 17:21:01;;;;;;;2.72;2.47;;;;;;;;;;10489908;28;20464;-59
2023/06/25 17:26:02;;;;;;;3.67;2.90;;;;;;;;;;10489894;28;20054;-60
2023/06/25 17:31:02;;;;;;;3.53;2.78;;;;;;;;;;10490696;28;20049;-60
2023/06/25 17:36:03;;;;;;;3.88;2.88;;;;;;;;;;10495117;28;20032;-60
2023/06/25 17:41:04;;;;;;;3.63;2.70;;;;;;;;;;10498761;28;20036;-60
2023/06/25 17:46:04;;;;;;;3.00;2.70;;;;;;;;;;10498715;28;20523;-61
2023/06/25 17:51:05;;;;;;;6.32;3.10;;;;;;;;;;10499509;28;20032;-60
2023/06/25 17:56:07;;;;;;;5.35;2.90;;;;;;;;;;10498257;28;20044;-59
2023/06/25 18:01:07;;;;;;;4.18;2.70;;;;;;;;;;10497751;28;20464;-61
2023/06/25 18:06:08;;;;;;;3.90;2.72;;;;;;;;;;10504071;28;20058;-60
2023/06/25 18:11:26;;;;;;;4.35;2.90;;;;;;;;;;10498000;28;20047;-61
2023/06/25 18:16:27;;;;;;;3.80;2.58;;;;;;;;;;10490058;28;20535;-60
2023/06/25 18:21:27;;;;;;;2.72;2.47;;;;;;;;;;10498035;28;20021;-60
2023/06/25 18:26:28;;;;;;;3.08;2.65;;;;;;;;;;10496730;28;20032;-60
2023/06/25 18:31:29;;;;;;;2.90;2.70;;;;;;;;;;10494614;28;20500;-60
2023/06/25 18:36:30;;;;;;;3.97;2.65;;;;;;;;;;10497256;28;20094;-61
2023/06/25 18:41:30;;;;;;;4.25;2.92;;;;;;;;;;10495403;28;20105;-60
2023/06/25 18:46:31;;;;;;;4.65;2.97;;;;;;;;;;10493740;28;20041;-60
2023/06/25 18:51:31;;;;;;;3.33;2.70;;;;;;;;;;10496619;28;20071;-61
2023/06/25 18:56:32;;;;;;;9.18;3.05;;;;;;;;;;10495309;28;20082;-59
2023/06/25 19:01:33;;;;;;;6.50;2.90;;;;;;;;;;10489280;28;20040;-61
2023/06/25 19:06:34;;;;;;;6.13;3.13;;;;;;;;;;10495187;28;20078;-61
2023/06/25 19:11:35;;;;;;;3.75;2.80;;;;;;;;;;10495139;28;20033;-61
2023/06/25 19:16:35;;;;;;;5.50;2.97;;;;;;;;;;10493276;28;20037;-62
2023/06/25 19:21:36;;;;;;;4.13;3.00;;;;;;;;;;10494118;28;20049;-62
2023/06/25 19:26:36;;;;;;;5.75;3.15;;;;;;;;;;10495440;28;20024;-61
2023/06/25 19:31:37;;;;;;;7.75;3.15;;;;;;;;;;10491933;28;20036;-62
2023/06/25 19:36:37;;;;;;;7.68;2.83;;;;;;;;;;10464927;28;20039;-62
2023/06/25 19:41:39;;;;;;;3.35;2.67;;;;;;;;;;10466405;28;20518;-59
2023/06/25 19:46:40;;;;;;;6.20;3.20;;;;;;;;;;10465263;28;20028;-58
2023/06/25 19:51:41;;;;;;;6.30;3.13;;;;;;;;;;10491869;28;20032;-58
2023/06/25 19:56:41;;;;;;;5.00;2.72;;;;;;;;;;10491298;28;20033;-58
2023/06/25 20:01:42;;;;;;;3.58;2.80;;;;;;;;;;10468399;28;20038;-58
2023/06/25 20:06:42;;;;;;;2.53;2.33;;;;;;;;;;10459278;28;20030;-59
2023/06/25 20:11:43;;;;;;;5.13;3.10;;;;;;;;;;10463284;28;20029;-58
2023/06/25 20:16:44;;;;;;;3.55;2.92;;;;;;;;;;10464464;28;20032;-57
2023/06/25 20:21:44;;;;;;;5.18;2.70;;;;;;;;;;10457276;28;20021;-59
2023/06/25 20:26:45;;;;;;;3.92;3.10;;;;;;;;;;10463399;28;20075;-58
2023/06/25 20:31:45;;;;;;;2.42;2.22;;;;;;;;;;10463916;28;20074;-58
2023/06/25 20:36:46;;;;;;;3.42;2.72;;;;;;;;;;10466278;28;20028;-59
2023/06/25 20:41:46;;;;;;;3.15;2.75;;;;;;;;;;10473826;28;20028;-60
2023/06/25 20:46:47;;;;;;;3.65;2.60;;;;;;;;;;10463851;28;20046;-60
2023/06/25 20:51:48;;;;;;;4.35;2.90;;;;;;;;;;10480700;28;20391;-59
2023/06/25 20:56:48;;;;;;;6.45;2.50;;;;;;;;;;10490953;28;20372;-59
2023/06/25 21:01:49;;;;;;;3.25;2.50;;;;;;;;;;10481948;28;20325;-59
2023/06/25 21:06:50;;;;;;;2.50;2.30;;;;;;;;;;10485712;28;20033;-59
2023/06/25 21:11:50;;;;;;;5.18;2.53;;;;;;;;;;10488496;28;20094;-60
2023/06/25 21:16:51;;;;;;;3.38;2.70;;;;;;;;;;10489497;28;20029;-60
2023/06/25 21:21:51;;;;;;;2.78;2.35;;;;;;;;;;10490042;28;20066;-62
2023/06/25 21:26:52;;;;;;;2.50;2.30;;;;;;;;;;10491142;28;20059;-60
2023/06/25 21:31:52;;;;;;;7.93;2.78;;;;;;;;;;10490100;28;20511;-59
2023/06/25 21:36:53;;;;;;;2.75;2.55;;;;;;;;;;10489805;28;20499;-62
2023/06/25 21:41:53;;;;;;;3.30;2.22;;;;;;;;;;10485702;28;20416;-63
2023/06/25 21:46:54;;;;;;;7.97;2.10;;;;;;;;;;10480523;28;20426;-62
2023/06/25 21:51:59;;;;;;;3.60;2.20;;;;;;;;;;10489382;28;20083;-60
2023/06/25 21:57:00;;;;;;;4.05;2.13;;;;;;;;;;10490258;28;20044;-60
2023/06/25 22:02:03;;;;;;;3.97;2.70;;;;;;;;;;10492465;28;20021;-62
2023/06/25 22:07:04;;;;;;;3.05;2.33;;;;;;;;;;10489613;28;20028;-62
2023/06/25 22:12:05;;;;;;;2.67;2.30;;;;;;;;;;10489253;28;20037;-60
2023/06/25 22:17:05;;;;;;;2.58;2.08;;;;;;;;;;10501615;28;20036;-63
2023/06/25 22:22:06;;;;;;;4.22;2.13;;;;;;;;;;10489220;28;20020;-61
2023/06/25 22:27:06;;;;;;;4.80;1.92;;;;;;;;;;10498170;28;20025;-63
2023/06/25 22:32:09;;;;;;;2.30;1.90;;;;;;;;;;10498725;28;20063;-62
2023/06/25 22:37:09;;;;;;;3.30;2.20;;;;;;;;;;10499521;28;20584;-63
2023/06/25 22:42:10;;;;;;;2.70;2.15;;;;;;;;;;10496641;28;20024;-62
2023/06/25 22:47:10;;;;;;;3.25;2.17;;;;;;;;;;10497699;28;20017;-63
2023/06/25 22:52:12;;;;;;;4.18;2.30;;;;;;;;;;10496713;28;20067;-62
2023/06/25 22:57:12;;;;;;;3.67;2.42;;;;;;;;;;10496931;28;20499;-58
2023/06/25 23:02:13;;;;;;;2.53;2.33;;;;;;;;;;10501391;28;20035;-59
2023/06/25 23:07:13;;;;;;;2.30;2.10;;;;;;;;;;10496403;28;20040;-59
2023/06/25 23:12:14;;;;;;;2.42;2.05;;;;;;;;;;10496074;28;20031;-58
2023/06/25 23:17:14;;;;;;;4.03;2.28;;;;;;;;;;10496060;28;20487;-60
2023/06/25 23:22:15;;;;;;;2.53;2.15;;;;;;;;;;10494537;28;20377;-58
2023/06/25 23:27:17;;;;;;;2.83;2.15;;;;;;;;;;10495734;28;20024;-57
2023/06/25 23:32:17;;;;;;;2.90;2.03;;;;;;;;;;10495097;28;20048;-58
2023/06/25 23:37:20;;;;;;;3.63;2.28;;;;;;;;;;10496009;28;20031;-62
2023/06/25 23:42:20;;;;;;;4.88;1.80;;;;;;;;;;10496052;28;20116;-63
2023/06/25 23:47:21;;;;;;;3.22;2.00;;;;;;;;;;10495143;28;20488;-60
2023/06/25 23:52:21;;;;;;;2.33;1.95;;;;;;;;;;10493063;28;20028;-60
2023/06/25 23:57:22;;;;;;;2.78;1.70;;;;;;;;;;10494929;28;20024;-62
